Time;durP1;ratioP1;P1;durP2;ratioP2;P2;SDS_P1;SDS_P2;PMS_P1;PMS_P2;Temp;Humidity;BMP_temperature;BMP_pressure;BME280_temperature;BME280_humidity;BME280_pressure;Samples;Min_cycle;Max_cycle;Signal;HPM_P1;HPM_P2
2022/05/16 00:00:35;;;;;;;3.05;1.83;;;22.00;46.80;;;;;;4950366;28;20035;-60
2022/05/16 00:03:04;;;;;;;3.08;1.73;;;22.00;46.90;;;;;;4949892;28;20043;-59
2022/05/16 00:05:29;;;;;;;4.13;1.92;;;22.00;46.90;;;;;;4951357;28;20035;-62
2022/05/16 00:07:55;;;;;;;2.85;1.63;;;22.00;47.00;;;;;;4950507;28;20594;-60
2022/05/16 00:10:22;;;;;;;2.20;1.60;;;22.00;47.00;;;;;;4949501;28;20044;-60
2022/05/16 00:12:47;;;;;;;3.42;1.95;;;22.10;47.00;;;;;;4950674;29;20042;-60
2022/05/16 00:15:16;;;;;;;2.85;1.88;;;22.00;47.00;;;;;;4950677;29;20575;-61
2022/05/16 00:17:41;;;;;;;3.05;1.88;;;22.00;47.00;;;;;;4949887;28;20077;-61
2022/05/16 00:20:08;;;;;;;3.85;2.00;;;22.00;47.00;;;;;;4950096;28;20066;-60
2022/05/16 00:22:33;;;;;;;2.45;1.60;;;22.00;47.10;;;;;;4950891;28;20126;-60
2022/05/16 00:24:59;;;;;;;3.03;1.95;;;22.00;47.10;;;;;;4950707;28;20126;-60
2022/05/16 00:27:24;;;;;;;2.17;1.65;;;22.10;47.20;;;;;;4950405;28;20992;-61
2022/05/16 00:29:50;;;;;;;2.42;1.50;;;22.10;47.20;;;;;;4950614;28;20074;-60
2022/05/16 00:32:17;;;;;;;2.42;1.65;;;22.00;47.20;;;;;;4948306;29;20127;-59
2022/05/16 00:34:43;;;;;;;3.10;1.65;;;22.00;47.20;;;;;;4948635;29;20055;-60
2022/05/16 00:37:08;;;;;;;3.53;1.85;;;22.00;47.20;;;;;;4950186;28;20043;-59
2022/05/16 00:39:34;;;;;;;3.35;1.77;;;22.00;47.30;;;;;;4950247;28;20057;-60
2022/05/16 00:42:01;;;;;;;4.55;2.00;;;22.00;47.30;;;;;;4948313;28;20125;-60
2022/05/16 00:44:27;;;;;;;3.50;1.70;;;22.00;47.30;;;;;;4949637;29;20122;-60
2022/05/16 00:46:53;;;;;;;3.85;2.03;;;22.00;47.30;;;;;;4949534;28;20092;-60
2022/05/16 00:49:31;;;;;;;3.45;2.00;;;22.00;47.30;;;;;;4948411;28;21067;-60
2022/05/16 00:52:02;;;;;;;3.53;2.15;;;22.00;47.40;;;;;;4948059;28;20097;-60
2022/05/16 00:54:32;;;;;;;3.22;1.48;;;22.00;47.40;;;;;;4950395;29;20972;-61
2022/05/16 00:57:03;;;;;;;3.05;1.90;;;22.00;47.40;;;;;;4949935;28;20043;-61
2022/05/16 00:59:37;;;;;;;3.20;1.70;;;22.00;47.40;;;;;;4949927;28;20053;-59
2022/05/16 01:04:47;;;;;;;3.20;1.98;;;22.00;47.50;;;;;;4946774;29;20051;-60
2022/05/16 01:07:16;;;;;;;3.13;2.15;;;22.00;47.50;;;;;;4947508;28;20058;-60
2022/05/16 01:09:42;;;;;;;2.50;1.70;;;22.00;47.50;;;;;;4947222;29;20055;-59
2022/05/16 01:12:08;;;;;;;2.88;1.73;;;22.00;47.50;;;;;;4948923;29;20966;-60
2022/05/16 01:14:43;;;;;;;2.75;1.70;;;22.00;47.50;;;;;;4949495;28;20084;-60
2022/05/16 01:17:09;;;;;;;3.88;1.83;;;21.90;47.50;;;;;;4963103;28;20050;-59
2022/05/16 01:19:34;;;;;;;2.47;1.83;;;22.00;47.40;;;;;;4945318;28;20070;-60
2022/05/16 01:22:08;;;;;;;3.88;1.90;;;22.00;47.50;;;;;;4948777;29;20661;-59
2022/05/16 01:24:34;;;;;;;2.95;1.60;;;22.00;47.50;;;;;;4949701;28;20043;-60
2022/05/16 01:27:00;;;;;;;3.58;2.03;;;21.90;47.50;;;;;;4948494;29;20502;-59
2022/05/16 01:29:25;;;;;;;2.70;1.45;;;21.90;47.50;;;;;;4949108;29;20066;-61
2022/05/16 01:31:51;;;;;;;2.95;1.70;;;21.90;47.50;;;;;;4949125;29;20043;-60
2022/05/16 01:34:16;;;;;;;3.38;1.90;;;21.90;47.50;;;;;;4947948;28;20066;-60
2022/05/16 01:36:42;;;;;;;2.75;1.90;;;22.00;47.50;;;;;;4949043;29;20100;-60
2022/05/16 01:39:07;;;;;;;3.38;1.83;;;21.90;47.50;;;;;;4947899;29;20110;-60
2022/05/16 01:41:33;;;;;;;2.40;1.70;;;21.90;47.50;;;;;;4954192;28;20468;-60
2022/05/16 01:44:01;;;;;;;3.88;1.90;;;21.90;47.50;;;;;;4949336;28;20114;-59
2022/05/16 01:46:30;;;;;;;3.30;1.65;;;21.90;47.50;;;;;;4948611;28;20070;-61
2022/05/16 01:48:55;;;;;;;2.15;1.52;;;21.90;47.50;;;;;;4939653;29;20471;-60
2022/05/16 01:51:21;;;;;;;3.80;1.60;;;21.90;47.50;;;;;;4949281;28;20047;-59
2022/05/16 01:53:47;;;;;;;2.95;1.67;;;21.90;47.50;;;;;;4947626;29;20188;-60
2022/05/16 01:56:14;;;;;;;2.60;1.58;;;21.90;47.60;;;;;;4949014;29;20081;-60
2022/05/16 01:58:44;;;;;;;3.78;2.28;;;21.90;47.50;;;;;;4948151;28;20043;-60
2022/05/16 02:01:11;;;;;;;2.78;1.75;;;21.90;47.60;;;;;;4942962;28;20038;-60
2022/05/16 02:03:38;;;;;;;2.55;1.60;;;21.90;47.50;;;;;;4943323;28;20506;-61
2022/05/16 02:06:04;;;;;;;3.25;2.13;;;21.90;47.50;;;;;;4945434;29;20516;-60
2022/05/16 02:08:30;;;;;;;2.90;1.92;;;21.90;47.50;;;;;;4947097;28;20043;-61
2022/05/16 02:10:56;;;;;;;2.42;1.60;;;21.90;47.50;;;;;;4947218;28;20039;-61
2022/05/16 02:13:22;;;;;;;2.17;1.55;;;21.90;47.50;;;;;;4946853;29;20097;-62
2022/05/16 02:15:47;;;;;;;3.20;1.95;;;21.90;47.50;;;;;;4947880;28;20047;-62
2022/05/16 02:18:13;;;;;;;4.38;1.70;;;21.90;47.50;;;;;;4946238;29;20122;-60
2022/05/16 02:20:39;;;;;;;3.63;1.60;;;21.90;47.40;;;;;;4946677;28;20053;-60
2022/05/16 02:25:50;;;;;;;3.45;1.92;;;21.90;47.50;;;;;;4947373;29;20057;-60
2022/05/16 02:28:18;;;;;;;3.28;1.83;;;21.90;47.50;;;;;;4946734;29;20047;-61
2022/05/16 02:30:45;;;;;;;4.63;2.10;;;21.80;47.30;;;;;;4947393;29;20118;-61
2022/05/16 02:33:14;;;;;;;5.20;1.90;;;21.90;48.10;;;;;;4947910;29;20042;-61
2022/05/16 02:35:39;;;;;;;2.38;1.75;;;21.90;47.40;;;;;;4946973;28;20608;-60
2022/05/16 02:38:07;;;;;;;2.97;1.73;;;21.90;47.40;;;;;;4952463;28;20043;-60
2022/05/16 02:40:34;;;;;;;2.33;1.60;;;21.90;47.40;;;;;;4948230;29;20047;-60
2022/05/16 02:43:00;;;;;;;4.70;2.13;;;21.80;47.30;;;;;;4946339;28;20043;-61
2022/05/16 02:45:27;;;;;;;2.72;1.95;;;21.80;48.00;;;;;;4946751;28;20053;-61
2022/05/16 02:47:52;;;;;;;3.65;1.85;;;21.90;47.40;;;;;;4949858;28;20073;-60
2022/05/16 02:50:23;;;;;;;4.15;1.75;;;21.90;47.30;;;;;;4947858;28;20047;-60
2022/05/16 02:52:49;;;;;;;5.53;2.17;;;21.80;47.20;;;;;;4947382;28;20079;-60
2022/05/16 02:55:14;;;;;;;3.53;1.58;;;21.80;47.20;;;;;;4947426;28;20110;-60
2022/05/16 02:57:40;;;;;;;3.28;2.10;;;21.80;47.20;;;;;;4947036;28;20099;-60
2022/05/16 03:00:08;;;;;;;4.38;2.05;;;21.80;47.20;;;;;;4946926;28;20044;-62
2022/05/16 03:02:35;;;;;;;2.92;1.80;;;21.80;47.20;;;;;;4946997;29;20039;-62
2022/05/16 03:05:01;;;;;;;3.03;1.60;;;21.80;47.10;;;;;;4948044;28;20043;-60
2022/05/16 03:07:27;;;;;;;2.28;1.50;;;21.80;47.20;;;;;;4947767;29;20039;-60
2022/05/16 03:09:52;;;;;;;2.55;1.85;;;21.80;47.10;;;;;;4945505;28;20086;-61
2022/05/16 03:12:18;;;;;;;3.05;1.70;;;21.80;47.20;;;;;;4950277;29;20420;-61
2022/05/16 03:14:44;;;;;;;2.45;1.52;;;21.80;47.10;;;;;;4951641;28;20353;-60
2022/05/16 03:17:10;;;;;;;3.75;1.95;;;21.80;47.10;;;;;;4951159;28;20134;-60
2022/05/16 03:19:35;;;;;;;3.22;1.90;;;21.80;47.10;;;;;;4951250;28;20043;-60
2022/05/16 03:22:03;;;;;;;2.67;1.83;;;21.80;47.00;;;;;;4950912;28;20051;-61
2022/05/16 03:24:28;;;;;;;2.55;1.80;;;21.80;47.00;;;;;;4950357;29;20074;-62
2022/05/16 03:26:54;;;;;;;3.67;1.98;;;21.80;47.00;;;;;;4950799;28;20074;-60
2022/05/16 03:29:20;;;;;;;4.18;1.85;;;21.80;47.00;;;;;;4957488;28;20058;-60
2022/05/16 03:31:45;;;;;;;3.90;1.98;;;21.80;47.00;;;;;;4951312;28;20054;-61
2022/05/16 03:34:11;;;;;;;3.67;1.77;;;21.80;47.00;;;;;;4950740;28;20122;-61
2022/05/16 03:36:38;;;;;;;3.33;1.70;;;21.80;47.00;;;;;;4964167;28;20078;-60
2022/05/16 03:41:50;;;;;;;2.38;1.63;;;21.80;46.90;;;;;;4969768;28;20058;-60
2022/05/16 03:44:16;;;;;;;2.55;1.73;;;21.80;46.90;;;;;;4970150;28;20043;-61
2022/05/16 03:46:41;;;;;;;2.25;1.60;;;21.80;46.90;;;;;;4969885;28;20780;-60
2022/05/16 03:49:07;;;;;;;2.20;1.70;;;21.80;46.90;;;;;;4969945;28;20042;-61
2022/05/16 03:51:34;;;;;;;4.35;1.73;;;21.80;46.90;;;;;;4969907;28;20476;-61
2022/05/16 03:53:59;;;;;;;3.88;1.88;;;21.80;46.90;;;;;;4969298;28;20407;-61
2022/05/16 03:56:27;;;;;;;3.30;1.85;;;21.80;46.80;;;;;;4969975;28;20038;-60
2022/05/16 03:58:55;;;;;;;3.38;1.83;;;21.80;46.90;;;;;;4969437;28;20046;-60
2022/05/16 04:01:21;;;;;;;2.92;1.73;;;21.80;46.80;;;;;;4963871;28;20468;-62
2022/05/16 04:03:48;;;;;;;2.90;1.70;;;21.70;46.80;;;;;;4965494;28;20047;-60
2022/05/16 04:06:14;;;;;;;3.25;1.73;;;21.80;46.80;;;;;;4966807;28;20051;-61
2022/05/16 04:08:42;;;;;;;4.25;1.90;;;21.70;46.80;;;;;;4969179;28;20062;-62
2022/05/16 04:11:08;;;;;;;3.25;1.70;;;21.70;46.80;;;;;;4967815;28;20475;-61
2022/05/16 04:13:35;;;;;;;2.53;1.80;;;21.80;46.80;;;;;;4969703;28;20039;-60
2022/05/16 04:16:01;;;;;;;2.50;1.70;;;21.80;46.80;;;;;;4970114;28;20126;-61
2022/05/16 04:18:27;;;;;;;3.40;1.80;;;21.80;46.80;;;;;;4968605;28;20137;-60
2022/05/16 04:20:52;;;;;;;2.28;1.70;;;21.80;46.80;;;;;;4969565;28;20043;-61
2022/05/16 04:23:18;;;;;;;3.13;1.75;;;21.70;46.80;;;;;;4967371;28;20088;-59
2022/05/16 04:25:44;;;;;;;4.22;1.80;;;21.80;46.80;;;;;;4968964;28;20038;-60
2022/05/16 04:28:10;;;;;;;2.40;1.73;;;21.80;46.80;;;;;;4969985;28;20062;-61
2022/05/16 04:30:38;;;;;;;2.50;1.67;;;21.80;46.80;;;;;;4969900;28;20658;-60
2022/05/16 04:33:05;;;;;;;2.67;1.70;;;21.70;46.70;;;;;;4969943;28;20034;-61
2022/05/16 04:35:31;;;;;;;1.98;1.60;;;21.70;46.70;;;;;;4970227;28;20050;-61
2022/05/16 04:37:57;;;;;;;2.67;1.80;;;21.70;46.70;;;;;;4969521;28;20042;-62
2022/05/16 04:40:23;;;;;;;2.90;1.40;;;21.70;46.70;;;;;;4969669;28;20461;-60
2022/05/16 04:42:48;;;;;;;4.07;1.92;;;21.70;46.70;;;;;;4969362;28;20130;-60
2022/05/16 04:45:29;;;;;;;2.70;1.65;;;21.70;46.70;;;;;;4951698;28;20535;-61
2022/05/16 04:47:58;;;;;;;3.97;1.95;;;21.70;46.70;;;;;;4969825;28;20368;-60
2022/05/16 04:50:29;;;;;;;2.58;1.70;;;21.70;46.80;;;;;;4969533;28;20158;-60
2022/05/16 04:52:56;;;;;;;3.30;1.95;;;21.70;46.70;;;;;;4968929;28;20113;-60
2022/05/16 04:55:22;;;;;;;2.40;1.60;;;21.70;46.70;;;;;;4969671;28;20066;-60
2022/05/16 04:57:48;;;;;;;2.60;1.63;;;21.70;46.80;;;;;;4969312;28;20039;-61
2022/05/16 05:00:15;;;;;;;2.97;1.52;;;21.70;46.70;;;;;;4950339;28;20094;-60
2022/05/16 05:02:41;;;;;;;3.10;1.80;;;21.70;46.70;;;;;;4969641;28;20046;-61
2022/05/16 05:05:08;;;;;;;3.70;1.80;;;21.70;46.80;;;;;;4968917;28;20035;-60
2022/05/16 05:07:35;;;;;;;2.97;1.80;;;21.70;46.70;;;;;;4969851;28;20070;-61
2022/05/16 05:15:30;;;;;;;3.42;1.70;;;21.70;46.80;;;;;;4965670;28;20055;-61
2022/05/16 05:17:56;;;;;;;3.85;1.80;;;21.70;46.80;;;;;;4968196;28;20035;-62
2022/05/16 05:20:22;;;;;;;2.38;1.50;;;21.70;46.80;;;;;;4949252;28;20482;-60
2022/05/16 05:22:48;;;;;;;4.28;2.10;;;21.60;46.70;;;;;;4968960;28;20057;-60
2022/05/16 05:25:17;;;;;;;3.90;2.00;;;21.70;46.70;;;;;;4969568;28;20038;-61
2022/05/16 05:27:45;;;;;;;5.13;2.50;;;21.60;46.60;;;;;;4968603;28;20376;-59
2022/05/16 05:30:13;;;;;;;5.50;2.80;;;21.70;46.50;;;;;;4967982;28;20086;-61
2022/05/16 05:32:39;;;;;;;4.93;2.72;;;21.70;46.60;;;;;;4966216;28;20046;-60
2022/05/16 05:35:06;;;;;;;11.18;3.22;;;21.70;46.60;;;;;;4965506;28;20470;-61
2022/05/16 05:37:32;;;;;;;6.82;2.40;;;21.60;46.60;;;;;;4968189;28;20074;-59
2022/05/16 05:40:00;;;;;;;7.38;2.78;;;21.60;46.60;;;;;;4966131;28;20035;-61
2022/05/16 05:42:27;;;;;;;8.60;2.47;;;21.60;46.50;;;;;;4966230;28;20061;-60
2022/05/16 05:44:53;;;;;;;7.20;2.53;;;21.60;46.40;;;;;;4967123;28;20130;-59
2022/05/16 05:47:19;;;;;;;3.78;2.53;;;21.70;46.60;;;;;;4966386;28;20062;-61
2022/05/16 05:49:45;;;;;;;5.75;2.65;;;21.60;46.50;;;;;;4966263;28;20039;-59
2022/05/16 05:52:17;;;;;;;5.85;3.00;;;21.60;46.50;;;;;;4945963;28;21103;-61
2022/05/16 05:54:43;;;;;;;6.00;2.90;;;21.60;46.40;;;;;;4964998;28;20387;-60
2022/05/16 05:57:10;;;;;;;5.47;2.80;;;21.60;46.60;;;;;;4965507;28;20043;-59
2022/05/16 05:59:36;;;;;;;9.13;2.92;;;21.60;46.80;;;;;;4965756;28;20042;-59
2022/05/16 06:02:02;;;;;;;5.88;2.70;;;21.60;46.90;;;;;;4964061;28;20051;-60
2022/05/16 06:04:28;;;;;;;6.15;2.45;;;21.60;46.90;;;;;;4960920;28;20057;-60
2022/05/16 06:06:53;;;;;;;5.45;2.38;;;21.60;47.00;;;;;;4960217;28;20043;-59
2022/05/16 06:09:19;;;;;;;6.70;2.70;;;21.60;47.00;;;;;;4949996;28;20046;-60
2022/05/16 06:11:44;;;;;;;8.55;3.10;;;21.60;46.90;;;;;;4965153;28;20152;-63
2022/05/16 06:14:10;;;;;;;6.25;2.42;;;21.60;46.90;;;;;;4967354;28;20442;-61
2022/05/16 06:16:35;;;;;;;6.47;2.38;;;21.60;47.20;;;;;;4965534;28;20506;-59
2022/05/16 06:19:01;;;;;;;6.78;2.55;;;21.60;47.30;;;;;;4962648;28;20042;-61
2022/05/16 06:21:26;;;;;;;5.55;2.78;;;21.60;47.20;;;;;;4964568;28;20384;-59
2022/05/16 06:23:52;;;;;;;8.57;2.85;;;21.60;47.00;;;;;;4948911;28;20169;-60
2022/05/16 06:26:18;;;;;;;6.93;3.03;;;21.60;47.10;;;;;;4967465;28;20039;-60
2022/05/16 06:28:44;;;;;;;4.43;2.38;;;21.60;47.10;;;;;;4967141;28;20150;-61
2022/05/16 06:31:10;;;;;;;5.10;2.72;;;21.60;47.10;;;;;;4948753;28;20042;-60
2022/05/16 06:33:36;;;;;;;6.18;2.95;;;21.60;47.10;;;;;;4967615;28;20038;-59
2022/05/16 06:36:05;;;;;;;6.70;2.63;;;21.60;47.00;;;;;;4945250;28;20423;-62
2022/05/16 06:38:33;;;;;;;8.05;3.10;;;21.60;47.00;;;;;;4963780;28;20144;-62
2022/05/16 06:40:59;;;;;;;8.68;2.60;;;21.60;47.10;;;;;;4965966;28;20059;-60
2022/05/16 06:43:27;;;;;;;7.00;2.75;;;21.60;47.20;;;;;;4963496;28;20088;-59
2022/05/16 06:45:54;;;;;;;9.18;2.92;;;21.60;47.20;;;;;;4962255;28;20070;-59
2022/05/16 06:48:20;;;;;;;6.47;2.25;;;21.60;47.20;;;;;;4964407;28;20471;-60
2022/05/16 06:50:48;;;;;;;8.55;2.60;;;21.60;47.30;;;;;;4964252;28;20042;-59
2022/05/16 06:53:27;;;;;;;8.43;2.85;;;21.60;47.30;;;;;;4964626;28;20049;-60
2022/05/16 06:55:53;;;;;;;6.90;2.80;;;21.60;47.50;;;;;;4947429;28;20051;-60
2022/05/16 06:58:19;;;;;;;7.40;2.58;;;21.60;47.50;;;;;;4965996;28;20053;-59
2022/05/16 07:00:44;;;;;;;5.57;2.65;;;21.60;47.50;;;;;;4964876;28;20039;-60
2022/05/16 07:03:11;;;;;;;7.53;3.00;;;21.60;47.40;;;;;;4965473;28;20039;-59
2022/05/16 07:05:36;;;;;;;6.90;2.78;;;21.60;47.40;;;;;;4965921;28;20047;-59
2022/05/16 07:08:02;;;;;;;7.38;2.92;;;21.60;47.40;;;;;;4965475;28;20062;-59
2022/05/16 07:10:28;;;;;;;5.97;2.38;;;21.60;48.20;;;;;;4965225;28;20106;-60
2022/05/16 07:12:54;;;;;;;5.43;2.70;;;21.60;47.50;;;;;;4966187;28;20038;-59
2022/05/16 07:15:20;;;;;;;4.20;2.30;;;21.60;47.50;;;;;;4965240;28;20043;-60
2022/05/16 07:17:46;;;;;;;7.38;2.30;;;21.60;47.40;;;;;;4967048;28;20050;-59
2022/05/16 07:20:12;;;;;;;7.63;2.90;;;21.60;47.40;;;;;;4965307;28;20050;-62
2022/05/16 07:22:45;;;;;;;6.10;2.65;;;21.60;47.40;;;;;;4945506;28;20073;-62
2022/05/16 07:25:12;;;;;;;8.82;2.88;;;21.60;47.50;;;;;;4963770;28;20042;-62
2022/05/16 07:27:56;;;;;;;4.47;2.53;;;21.60;47.60;;;;;;4964805;28;20035;-59
2022/05/16 07:30:34;;;;;;;6.85;2.53;;;21.60;47.50;;;;;;4962926;28;20134;-59
2022/05/16 07:33:01;;;;;;;6.55;2.80;;;21.60;47.50;;;;;;4964872;28;20378;-59
2022/05/16 07:35:30;;;;;;;5.95;2.53;;;21.60;47.70;;;;;;4965957;28;20057;-59
2022/05/16 07:37:56;;;;;;;7.97;2.75;;;21.60;47.70;;;;;;4966302;28;20531;-59
2022/05/16 07:40:25;;;;;;;8.02;2.95;;;21.60;47.70;;;;;;4963884;28;20053;-62
2022/05/16 07:42:52;;;;;;;4.75;2.22;;;21.60;47.70;;;;;;4966233;28;20487;-60
2022/05/16 07:45:19;;;;;;;9.00;3.00;;;21.60;47.70;;;;;;4964900;28;20778;-59
2022/05/16 07:47:44;;;;;;;6.50;2.90;;;21.60;47.70;;;;;;4964601;28;20043;-58
2022/05/16 07:50:10;;;;;;;5.88;2.40;;;21.60;47.80;;;;;;4964365;28;20038;-60
2022/05/16 07:52:36;;;;;;;5.18;2.75;;;21.60;47.80;;;;;;4965147;28;20074;-59
2022/05/16 07:55:04;;;;;;;10.40;3.28;;;21.60;47.80;;;;;;4964680;28;20034;-60
2022/05/16 07:57:30;;;;;;;6.63;2.80;;;21.60;47.90;;;;;;4942999;28;20042;-60
2022/05/16 07:59:56;;;;;;;4.25;2.40;;;21.60;48.00;;;;;;4969474;28;20054;-59
2022/05/16 08:02:22;;;;;;;5.78;2.78;;;21.60;48.10;;;;;;4969367;28;20058;-60
2022/05/16 08:04:47;;;;;;;5.45;2.70;;;21.60;48.20;;;;;;4968608;28;20038;-58
2022/05/16 08:07:13;;;;;;;5.50;2.63;;;21.60;48.10;;;;;;4951940;28;20427;-60
2022/05/16 08:12:31;;;;;;;6.57;2.40;;;21.60;48.10;;;;;;4966443;28;20054;-61
2022/05/16 08:14:57;;;;;;;6.63;2.35;;;21.60;48.20;;;;;;4968397;28;20043;-59
2022/05/16 08:17:23;;;;;;;5.28;2.30;;;21.60;48.40;;;;;;4951863;28;20093;-61
2022/05/16 08:19:49;;;;;;;6.45;3.15;;;21.70;48.70;;;;;;4966634;28;20039;-61
2022/05/16 08:22:16;;;;;;;5.55;2.47;;;21.60;48.60;;;;;;4968106;28;20041;-59
2022/05/16 08:24:42;;;;;;;7.65;2.67;;;21.70;48.70;;;;;;4966999;28;20094;-60
2022/05/16 08:27:07;;;;;;;5.35;2.47;;;21.60;48.70;;;;;;4950598;28;20124;-59
2022/05/16 08:29:33;;;;;;;6.93;2.67;;;21.70;48.80;;;;;;4968258;28;20042;-60
2022/05/16 08:32:00;;;;;;;4.72;2.42;;;21.70;48.80;;;;;;4968973;28;20438;-59
2022/05/16 08:34:26;;;;;;;6.32;2.92;;;21.70;48.80;;;;;;4967371;28;20179;-61
2022/05/16 08:39:52;;;;;;;5.20;2.10;;;21.70;49.00;;;;;;4966921;28;20647;-58
2022/05/16 08:42:39;;;;;;;6.47;2.72;;;21.70;49.00;;;;;;4967868;28;20045;-60
2022/05/16 08:45:14;;;;;;;4.20;2.10;;;21.70;49.20;;;;;;4968284;28;20038;-58
2022/05/16 08:48:03;;;;;;;5.68;3.22;;;21.70;49.20;;;;;;4950924;28;20053;-59
2022/05/16 08:50:45;;;;;;;5.60;2.63;;;21.70;49.20;;;;;;4966951;28;20838;-62
2022/05/16 08:53:16;;;;;;;5.38;2.47;;;21.70;49.30;;;;;;4968883;28;20046;-60
2022/05/16 08:55:48;;;;;;;5.38;2.50;;;21.70;49.40;;;;;;4968352;28;20039;-61
2022/05/16 08:58:25;;;;;;;6.22;2.42;;;21.70;49.50;;;;;;4966873;28;20046;-59
2022/05/16 09:00:55;;;;;;;4.72;2.17;;;21.70;49.50;;;;;;4964197;28;20043;-60
2022/05/16 09:03:31;;;;;;;7.10;2.63;;;21.70;49.40;;;;;;4965248;28;20035;-61
2022/05/16 09:06:01;;;;;;;6.30;2.38;;;21.70;49.50;;;;;;4964682;28;20045;-60
2022/05/16 09:08:42;;;;;;;6.65;2.40;;;21.70;49.50;;;;;;4966159;28;20046;-59
2022/05/16 09:11:14;;;;;;;5.93;2.22;;;21.80;49.60;;;;;;4966221;28;20113;-59
2022/05/16 09:13:46;;;;;;;5.20;2.45;;;21.70;49.50;;;;;;4966923;28;20085;-59
2022/05/16 09:16:30;;;;;;;5.88;2.35;;;21.70;49.50;;;;;;4941803;28;20039;-60
2022/05/16 09:19:10;;;;;;;5.85;2.40;;;21.80;49.60;;;;;;4965429;28;20035;-61
2022/05/16 09:21:54;;;;;;;5.30;2.40;;;21.80;49.50;;;;;;4967727;28;20070;-60
2022/05/16 09:24:35;;;;;;;7.22;2.85;;;21.80;49.80;;;;;;4965440;28;20536;-62
2022/05/16 09:27:09;;;;;;;4.57;2.38;;;21.70;49.80;;;;;;4945327;28;20447;-59
2022/05/16 09:29:46;;;;;;;4.43;2.80;;;21.80;50.00;;;;;;4948167;28;20415;-58
2022/05/16 09:32:33;;;;;;;6.75;2.72;;;21.80;49.90;;;;;;4945219;28;20034;-60
2022/05/16 09:34:59;;;;;;;9.02;2.60;;;21.80;49.90;;;;;;4948596;28;20823;-60
2022/05/16 09:37:25;;;;;;;5.50;2.47;;;21.80;49.90;;;;;;4966551;28;20050;-58
2022/05/16 09:39:53;;;;;;;6.88;2.72;;;21.80;50.00;;;;;;4967590;28;20039;-60
2022/05/16 09:42:31;;;;;;;5.22;2.28;;;21.80;50.00;;;;;;4965963;28;20121;-59
2022/05/16 09:45:02;;;;;;;6.80;2.78;;;21.80;50.10;;;;;;4967534;28;20039;-59
2022/05/16 09:47:28;;;;;;;6.45;2.25;;;21.80;50.10;;;;;;4966619;28;20074;-59
2022/05/16 09:50:03;;;;;;;5.90;2.53;;;21.80;50.10;;;;;;4967376;28;20470;-61
2022/05/16 09:53:13;;;;;;;4.07;2.30;;;21.80;50.10;;;;;;4949868;28;20047;-59
2022/05/16 09:55:51;;;;;;;4.90;2.30;;;21.80;50.10;;;;;;4960436;28;20054;-60
2022/05/16 09:58:30;;;;;;;6.05;2.28;;;21.80;50.20;;;;;;4967318;28;20089;-60
2022/05/16 10:00:59;;;;;;;4.55;2.20;;;21.80;50.20;;;;;;4965628;28;20065;-60
2022/05/16 10:03:36;;;;;;;4.00;2.28;;;21.80;50.20;;;;;;4948097;28;20058;-61
2022/05/16 10:06:30;;;;;;;5.97;2.10;;;21.80;50.20;;;;;;4966587;28;20065;-60
2022/05/16 10:09:01;;;;;;;5.85;2.17;;;21.80;50.10;;;;;;4958391;28;20055;-60
2022/05/16 10:11:29;;;;;;;3.53;2.45;;;21.80;50.20;;;;;;4966960;28;20074;-61
2022/05/16 10:13:55;;;;;;;5.70;2.50;;;21.80;50.20;;;;;;4966617;28;20154;-59
2022/05/16 10:16:24;;;;;;;4.68;2.40;;;21.80;50.30;;;;;;4962569;28;20039;-60
2022/05/16 10:19:11;;;;;;;4.63;2.45;;;21.80;50.20;;;;;;4949630;28;20047;-59
2022/05/16 10:21:48;;;;;;;4.78;2.30;;;21.80;50.30;;;;;;4965672;28;20101;-60
2022/05/16 10:24:14;;;;;;;6.28;2.30;;;21.80;50.30;;;;;;4965060;28;20057;-60
2022/05/16 10:26:44;;;;;;;5.32;2.22;;;21.80;50.50;;;;;;4949136;28;20422;-59
2022/05/16 10:29:14;;;;;;;4.88;2.88;;;21.80;50.80;;;;;;4965935;28;20097;-60
2022/05/16 10:34:40;;;;;;;3.90;2.55;;;21.80;51.10;;;;;;4965071;28;20050;-59
2022/05/16 10:37:07;;;;;;;6.28;2.90;;;21.80;51.20;;;;;;4963193;28;20383;-59
2022/05/16 10:39:35;;;;;;;9.05;2.70;;;21.80;51.20;;;;;;4961334;28;20042;-58
2022/05/16 10:42:07;;;;;;;5.50;2.35;;;21.80;51.30;;;;;;4947978;28;20533;-61
2022/05/16 10:44:58;;;;;;;5.47;2.83;;;21.80;51.40;;;;;;4946259;28;20094;-59
2022/05/16 10:47:33;;;;;;;13.90;3.08;;;21.80;51.50;;;;;;4965129;28;20077;-59
2022/05/16 10:50:08;;;;;;;7.05;2.83;;;21.80;51.60;;;;;;4965212;28;20078;-58
2022/05/16 10:53:01;;;;;;;4.78;2.47;;;21.80;51.70;;;;;;4965960;28;20050;-58
2022/05/16 10:55:32;;;;;;;4.65;2.25;;;21.80;51.60;;;;;;4965720;28;20050;-60
2022/05/16 10:58:17;;;;;;;4.32;2.63;;;21.80;51.50;;;;;;4957628;28;20039;-61
2022/05/16 11:01:09;;;;;;;6.40;2.55;;;21.90;51.50;;;;;;4958435;28;20675;-61
2022/05/16 11:04:07;;;;;;;4.72;2.58;;;21.80;51.50;;;;;;4962256;28;20061;-63
2022/05/16 11:06:42;;;;;;;5.60;2.38;;;21.80;51.60;;;;;;4937069;28;20058;-61
2022/05/16 11:09:33;;;;;;;4.63;2.50;;;21.80;51.70;;;;;;4948874;28;20046;-61
2022/05/16 11:12:17;;;;;;;4.05;2.38;;;21.80;51.80;;;;;;4943161;28;20554;-59
2022/05/16 11:14:56;;;;;;;4.10;2.40;;;21.80;51.80;;;;;;4945627;29;20051;-58
2022/05/16 11:17:31;;;;;;;42.08;13.23;;;21.80;51.80;;;;;;4944161;28;20126;-59
2022/05/16 11:20:04;;;;;;;28.95;9.25;;;21.80;52.20;;;;;;4945340;29;20766;-61
2022/05/16 11:22:41;;;;;;;15.07;5.63;;;21.80;52.70;;;;;;4946534;29;20081;-60
2022/05/16 11:25:16;;;;;;;16.45;5.78;;;21.80;52.40;;;;;;4945657;28;20505;-62
2022/05/16 11:28:06;;;;;;;12.05;5.78;;;21.80;52.40;;;;;;4945881;28;20074;-62
2022/05/16 11:30:56;;;;;;;15.93;6.13;;;21.90;52.50;;;;;;4943458;29;20047;-60
2022/05/16 11:33:50;;;;;;;19.08;6.03;;;21.80;52.40;;;;;;4947316;28;20499;-60
2022/05/16 11:36:45;;;;;;;12.57;4.95;;;21.80;52.50;;;;;;4946066;29;20086;-59
2022/05/16 11:39:10;;;;;;;19.33;5.40;;;21.80;52.60;;;;;;4947622;29;20114;-59
2022/05/16 11:42:05;;;;;;;12.55;5.13;;;21.80;52.70;;;;;;4949124;29;20217;-58
2022/05/16 11:44:50;;;;;;;15.77;5.18;;;21.80;52.70;;;;;;4949332;29;20133;-58
2022/05/16 11:47:38;;;;;;;12.88;5.15;;;21.90;52.80;;;;;;4930419;29;20054;-60
2022/05/16 11:50:09;;;;;;;14.15;4.97;;;21.90;52.70;;;;;;4949332;29;20183;-60
2022/05/16 11:52:48;;;;;;;10.95;4.70;;;21.90;52.70;;;;;;4949461;29;20035;-59
2022/05/16 12:00:58;;;;;;;10.32;4.60;;;21.90;52.80;;;;;;4950262;29;20530;-59
2022/05/16 12:03:35;;;;;;;10.98;5.00;;;21.90;52.90;;;;;;4949882;28;20054;-59
2022/05/16 12:06:24;;;;;;;12.00;4.80;;;21.90;53.50;;;;;;4950222;29;20490;-58
2022/05/16 12:08:50;;;;;;;14.00;5.40;;;21.90;53.10;;;;;;4949191;28;20404;-62
2022/05/16 12:11:28;;;;;;;12.70;5.00;;;21.90;53.10;;;;;;4948752;28;20054;-58
2022/05/16 12:13:59;;;;;;;9.57;3.95;;;21.90;53.30;;;;;;4950370;29;20179;-59
2022/05/16 12:16:35;;;;;;;14.68;5.25;;;21.90;53.40;;;;;;4950147;28;20046;-60
2022/05/16 12:19:26;;;;;;;12.63;4.70;;;21.90;53.30;;;;;;4950083;29;20575;-58
2022/05/16 12:22:01;;;;;;;8.95;3.97;;;21.90;53.10;;;;;;4949140;29;20039;-59
2022/05/16 12:24:33;;;;;;;10.18;4.20;;;21.90;53.20;;;;;;4949778;29;20156;-62
2022/05/16 12:26:59;;;;;;;11.23;4.38;;;21.90;53.50;;;;;;4946963;29;20043;-59
2022/05/16 12:29:52;;;;;;;7.85;4.07;;;21.90;53.60;;;;;;4948277;29;20039;-60
2022/05/16 12:32:22;;;;;;;10.20;4.85;;;22.00;54.00;;;;;;4948473;29;20051;-59
2022/05/16 12:34:50;;;;;;;9.50;3.83;;;21.90;53.80;;;;;;4949249;28;20130;-59
2022/05/16 12:37:18;;;;;;;12.57;4.40;;;21.90;53.70;;;;;;4949329;29;20408;-58
2022/05/16 12:40:00;;;;;;;12.48;4.38;;;22.00;53.90;;;;;;4949118;28;20110;-59
2022/05/16 12:42:38;;;;;;;11.88;4.20;;;22.00;53.80;;;;;;4948817;28;20043;-58
2022/05/16 12:45:36;;;;;;;8.40;3.92;;;22.00;53.80;;;;;;4947978;29;20085;-59
2022/05/16 12:48:09;;;;;;;9.35;4.00;;;22.00;53.70;;;;;;4949498;28;20371;-59
2022/05/16 12:50:52;;;;;;;10.20;4.10;;;22.00;53.90;;;;;;4941691;29;20395;-59
2022/05/16 12:53:48;;;;;;;10.25;4.45;;;22.00;53.80;;;;;;4948983;29;20043;-59
2022/05/16 12:56:25;;;;;;;13.05;3.92;;;22.00;53.80;;;;;;4949415;29;20043;-58
2022/05/16 12:59:18;;;;;;;10.95;4.22;;;22.00;53.90;;;;;;4947194;29;20035;-59
2022/05/16 13:02:03;;;;;;;10.90;4.30;;;22.00;54.00;;;;;;4948941;29;20137;-59
2022/05/16 13:04:50;;;;;;;8.88;4.50;;;22.00;54.10;;;;;;4948170;29;20581;-60
2022/05/16 13:07:19;;;;;;;7.43;3.58;;;22.00;54.20;;;;;;4949073;29;20377;-58
2022/05/16 13:09:57;;;;;;;10.73;4.70;;;22.00;54.00;;;;;;4947754;29;20082;-58
2022/05/16 13:13:00;;;;;;;7.80;3.88;;;22.00;54.90;;;;;;4948851;29;20047;-60
2022/05/16 13:15:59;;;;;;;6.60;4.10;;;22.00;54.10;;;;;;4948793;29;20122;-59
2022/05/16 13:18:28;;;;;;;10.50;4.53;;;22.00;54.60;;;;;;4946428;29;20039;-60
2022/05/16 13:20:59;;;;;;;7.85;4.50;;;22.00;54.40;;;;;;4947074;29;20073;-59
2022/05/16 13:23:24;;;;;;;10.68;4.82;;;22.00;54.30;;;;;;4946119;29;20062;-60
2022/05/16 13:31:34;;;;;;;6.82;3.95;;;22.10;54.30;;;;;;4941559;28;20385;-61
2022/05/16 13:34:04;;;;;;;7.38;3.60;;;22.10;54.10;;;;;;4948139;28;20039;-59
2022/05/16 13:36:31;;;;;;;8.70;4.15;;;22.10;54.10;;;;;;4946476;29;20051;-60